Web Results
Current weather in Las Vegas, NV 89101
Clear
79ºF
Clear
Source: www.weather.com
Enter a Location:

weather.com/weather/tenday/l/89101:4:US

Be prepared with the most accurate 10-day forecast for Las Vegas, NV (89101) with highs, lows, chance of precipitation from The Weather Channel and ...

www.accuweather.com/en/us/las-vegas-nv/89101/weather-forecast/329506

Get the Las Vegas weather forecast. Access hourly, 10 day and 15 day forecasts along with up to the minute reports and videos for Las Vegas, NV 89101 from ...

www.accuweather.com/en/us/las-vegas-nv/89101/daily-weather-forecast/329506

Las Vegas weather forecast from AccuWeather.com. Extended forecast in Las Vegas, NV 89101 for up to 25 days includes high temperature, RealFeel and ...

www.wunderground.com/us/nv/las-vegas/zmw:89101.1.99999

Get latest forecast for Las Vegas, NV (89101) weather along with updates about temperature, humidity, weather radar and more on Weather Underground.

www.theweathernetwork.com/us/weather/nevada/las-vegas

3 days ago ... Find the most current and reliable 7 day weather forecasts, storm alerts, reports and information for Las Vegas, NV, US with The Weather ...

www.wunderground.com/weather/us/nv/las-vegas/89101

METAR KVGT 232353Z AUTO VRB04KT 10SM CLR 33/07 A2988 RMK AO2 WSHFT 2240 SLP105 60000 T03330072 10378 20322 57009. Astronomy. Sun.

www.wunderground.com/weather/us/nv/las-vegas

METAR KVGT 240053Z AUTO 26004KT 10SM CLR 33/07 A2985 RMK AO2 SLP098 T03330067. Astronomy. Sun. Rise. Set. Actual Time. -. -. Civil Twilight.

www.fox5vegas.com/weather

7-Day Forecast · Day Part Forecast Las Vegas, NV Day Planner · Southwest Radar Las Vegas, NV Southwest Radar · Weather Alerts Fox5 Las Vegas Weather

www.intellicast.com/local/weather.aspx?location=USNV0049

Intellicast.com: The Authority in Expert Weather. ... No Active Weather Alerts ... Neon Vegas Homes - Central Valley Las Vegas, NV 36.15°N, 115.19°W at 2152ft  ...